createdAt,value
2022-08-25T00:01:35.393Z,101634.94
2022-08-25T00:04:03.394Z,101629.97
2022-08-25T00:06:29.773Z,101627.06
2022-08-25T00:08:59.524Z,101631.34
2022-08-25T00:11:26.557Z,101631.34
2022-08-25T00:13:54.156Z,101621.91
2022-08-25T00:16:20.819Z,101629.19
2022-08-25T00:18:49.424Z,101631.34
2022-08-25T00:21:15.789Z,101626.28
2022-08-25T00:23:42.211Z,101625.56
2022-08-25T00:26:08.591Z,101629.19
2022-08-25T00:28:35.566Z,101615.47
2022-08-25T00:31:02.100Z,101614.72
2022-08-25T00:33:28.523Z,101616.88
2022-08-25T00:35:56.341Z,101608.19
2022-08-25T00:38:22.698Z,101610.34
2022-08-25T00:41:05.693Z,101608.19
2022-08-25T00:43:38.011Z,101602.31
2022-08-25T00:46:04.481Z,101603.06
2022-08-25T00:48:30.869Z,101608.19
2022-08-25T00:50:57.235Z,101612.50
2022-08-25T00:53:24.230Z,101605.22
2022-08-25T00:55:50.606Z,101605.97
2022-08-25T00:58:18.479Z,101604.47
2022-08-25T01:00:45.893Z,101603.72
2022-08-25T01:03:12.300Z,101613.22
2022-08-25T01:05:38.666Z,101612.41
2022-08-25T01:08:07.011Z,101615.31
2022-08-25T01:10:33.838Z,101619.59
2022-08-25T01:13:01.698Z,101618.13
2022-08-25T01:15:28.120Z,101612.31
2022-08-25T01:17:54.919Z,101616.63
2022-08-25T01:20:22.110Z,101615.22
2022-08-25T01:22:55.133Z,101616.63
2022-08-25T01:25:27.581Z,101617.38
2022-08-25T01:27:53.939Z,101610.84
2022-08-25T01:30:20.286Z,101622.44
2022-08-25T01:32:46.750Z,101619.53
2022-08-25T01:35:13.101Z,101619.38
2022-08-25T01:37:39.465Z,101616.47
2022-08-25T01:40:06.564Z,101616.47
2022-08-25T01:42:37.419Z,101614.19
2022-08-25T01:45:04.214Z,101612.81
2022-08-25T01:47:31.935Z,101606.25
2022-08-25T01:49:58.289Z,101603.34
2022-08-25T01:52:53.767Z,101607.66
2022-08-25T01:55:20.122Z,101604.78
2022-08-25T01:57:46.473Z,101610.47
2022-08-25T02:00:14.443Z,101604.69
2022-08-25T02:02:42.470Z,101604.69
2022-08-25T02:05:09.697Z,101613.38
2022-08-25T02:07:36.373Z,101597.41
2022-08-25T02:10:04.233Z,101600.31
2022-08-25T02:12:33.625Z,101591.63
2022-08-25T02:15:01.648Z,101596.66
2022-08-25T02:17:28.550Z,101592.28
2022-08-25T02:19:56.902Z,101582.84
2022-08-25T02:22:23.368Z,101585.75
2022-08-25T02:24:49.966Z,101577.81
2022-08-25T02:27:16.401Z,101577.06
2022-08-25T02:29:42.750Z,101584.34
2022-08-25T02:32:10.306Z,101582.09
2022-08-25T02:34:37.250Z,101584.97
2022-08-25T02:37:03.611Z,101592.19
2022-08-25T02:39:29.971Z,101592.19
2022-08-25T02:41:56.330Z,101583.00
2022-08-25T02:44:22.686Z,101575.69
2022-08-25T02:46:49.034Z,101580.19
2022-08-25T02:49:15.409Z,101580.63
2022-08-25T02:51:42.869Z,101572.50
2022-08-25T02:54:10.199Z,101575.34
2022-08-25T02:56:36.654Z,101566.66
2022-08-25T02:59:03.100Z,101565.16
2022-08-25T03:01:33.767Z,101565.88
2022-08-25T03:04:07.125Z,101558.63
2022-08-25T03:06:33.469Z,101567.28
2022-08-25T03:09:08.618Z,101566.56
2022-08-25T03:11:35.018Z,101560.78
2022-08-25T03:14:01.399Z,101557.88
2022-08-25T03:16:28.214Z,101557.88
2022-08-25T03:18:54.683Z,101555.63
2022-08-25T03:21:21.310Z,101549.84
2022-08-25T03:23:48.470Z,101550.59
2022-08-25T03:26:33.378Z,101549.84
2022-08-25T03:29:00.238Z,101553.41
2022-08-25T03:31:27.693Z,101547.59
2022-08-25T03:33:54.318Z,101544.72
2022-08-25T03:36:20.678Z,101553.41
2022-08-25T03:38:47.033Z,101541.81
2022-08-25T03:41:32.748Z,101543.22
2022-08-25T03:43:59.725Z,101539.59
2022-08-25T03:46:26.984Z,101537.44
2022-08-25T03:48:53.372Z,101538.84
2022-08-25T03:51:23.009Z,101538.84
2022-08-25T03:53:49.386Z,101548.94
2022-08-25T03:56:16.171Z,101548.94
2022-08-25T03:58:42.586Z,101547.47
2022-08-25T04:01:09.499Z,101548.94
2022-08-25T04:03:35.921Z,101548.19
2022-08-25T04:06:10.114Z,101555.47
2022-08-25T04:08:36.609Z,101548.84
2022-08-25T04:11:10.198Z,101550.34
2022-08-25T04:13:36.813Z,101555.34
2022-08-25T04:16:04.389Z,101549.38
2022-08-25T04:18:31.281Z,101551.38
2022-08-25T04:21:04.057Z,101552.72
2022-08-25T04:23:30.427Z,101550.97
2022-08-25T04:25:56.794Z,101560.81
2022-08-25T04:28:23.935Z,101561.31
2022-08-25T04:30:52.123Z,101564.34
2022-08-25T04:33:18.660Z,101569.75
2022-08-25T04:35:48.867Z,101562.22
2022-08-25T04:38:15.236Z,101562.84
2022-08-25T04:40:41.595Z,101560.72
2022-08-25T04:43:07.969Z,101560.50
2022-08-25T04:45:38.434Z,101566.16
2022-08-25T04:48:04.865Z,101572.41
2022-08-25T04:50:31.320Z,101571.97
2022-08-25T04:52:59.602Z,101570.41
2022-08-25T04:55:28.972Z,101572.94
2022-08-25T04:57:55.356Z,101572.44
2022-08-25T05:00:21.729Z,101575.44
2022-08-25T05:02:48.105Z,101566.44
2022-08-25T05:05:14.469Z,101570.19
2022-08-25T05:07:51.327Z,101562.81
2022-08-25T05:10:17.730Z,101564.00
2022-08-25T05:12:44.090Z,101570.88
2022-08-25T05:15:29.514Z,101575.50
2022-08-25T05:17:56.239Z,101569.03
2022-08-25T05:20:22.847Z,101569.78
2022-08-25T05:22:49.240Z,101577.75
2022-08-25T05:25:15.734Z,101573.69
2022-08-25T05:27:42.290Z,101572.13
2022-08-25T05:30:09.792Z,101578.31
2022-08-25T05:32:36.219Z,101580.16
2022-08-25T05:35:02.794Z,101581.25
2022-08-25T05:37:29.145Z,101578.03
2022-08-25T05:39:55.524Z,101584.78
2022-08-25T05:42:22.722Z,101574.72
2022-08-25T05:44:49.143Z,101573.25
2022-08-25T05:47:15.498Z,101584.97
2022-08-25T05:49:41.884Z,101583.84
2022-08-25T05:52:08.255Z,101586.69
2022-08-25T05:54:34.613Z,101591.50
2022-08-25T05:57:01.222Z,101590.94
2022-08-25T05:59:27.607Z,101584.00
2022-08-25T06:02:12.827Z,101580.94
2022-08-25T06:04:41.273Z,101592.16
2022-08-25T06:07:07.802Z,101594.25
2022-08-25T06:09:34.176Z,101589.94
2022-08-25T06:12:00.703Z,101587.47
2022-08-25T06:14:27.396Z,101589.16
2022-08-25T06:16:53.773Z,101587.75
2022-08-25T06:19:21.112Z,101585.03
2022-08-25T06:21:47.757Z,101587.16
2022-08-25T06:24:15.687Z,101587.53
2022-08-25T06:26:42.286Z,101594.59
2022-08-25T06:29:08.656Z,101586.38
2022-08-25T06:31:35.120Z,101595.22
2022-08-25T06:34:01.550Z,101590.44
2022-08-25T06:36:28.254Z,101594.28
2022-08-25T06:38:54.631Z,101598.22
2022-08-25T06:41:20.991Z,101602.69
2022-08-25T06:43:50.755Z,101608.88
2022-08-25T06:46:18.322Z,101605.13
2022-08-25T06:48:44.718Z,101605.53
2022-08-25T06:51:13.916Z,101605.63
2022-08-25T06:53:40.663Z,101613.69
2022-08-25T06:56:07.051Z,101607.91
2022-08-25T06:58:33.929Z,101609.81
2022-08-25T07:01:14.955Z,101609.94
2022-08-25T07:03:45.989Z,101604.06
2022-08-25T07:06:14.004Z,101607.72
2022-08-25T07:08:41.042Z,101604.28
2022-08-25T07:11:07.763Z,101598.88
2022-08-25T07:13:42.860Z,101594.06
2022-08-25T07:16:11.043Z,101595.78
2022-08-25T07:18:37.800Z,101590.22
2022-08-25T07:21:04.171Z,101597.28
2022-08-25T07:23:30.559Z,101586.50
2022-08-25T07:25:56.933Z,101585.72
2022-08-25T07:28:23.302Z,101599.22
2022-08-25T07:30:52.163Z,101586.31
2022-08-25T07:33:18.676Z,101582.72
2022-08-25T07:35:45.284Z,101593.16
2022-08-25T07:38:13.552Z,101592.28
2022-08-25T07:40:46.057Z,101590.63
2022-08-25T07:43:19.856Z,101581.22
2022-08-25T07:48:32.948Z,101590.53
2022-08-25T07:51:01.747Z,101591.09
2022-08-25T07:53:30.611Z,101589.22
2022-08-25T07:55:57.026Z,101598.53
2022-08-25T07:58:23.435Z,101590.78
2022-08-25T08:00:53.063Z,101589.50
2022-08-25T08:03:42.309Z,101583.06
2022-08-25T08:06:07.539Z,101592.75
2022-08-25T08:08:33.911Z,101583.44
2022-08-25T08:11:04.775Z,101589.03
2022-08-25T08:13:32.663Z,101583.25
2022-08-25T08:16:01.222Z,101580.44
2022-08-25T08:18:27.630Z,101580.44
2022-08-25T08:20:54.069Z,101574.81
2022-08-25T08:23:21.060Z,101575.00
2022-08-25T08:25:47.954Z,101566.25
2022-08-25T08:28:14.377Z,101567.16
2022-08-25T08:30:40.750Z,101569.56
2022-08-25T08:33:20.538Z,101569.50
2022-08-25T08:35:47.503Z,101563.69
2022-08-25T08:38:19.578Z,101563.13
2022-08-25T08:41:14.502Z,101559.31
2022-08-25T08:43:41.760Z,101562.47
2022-08-25T08:46:08.301Z,101551.53
2022-08-25T08:48:44.528Z,101551.63
2022-08-25T08:51:17.155Z,101549.50
2022-08-25T08:53:52.503Z,101552.63
2022-08-25T08:56:30.780Z,101556.84
2022-08-25T08:59:06.427Z,101552.03
2022-08-25T09:01:42.414Z,101547.41
2022-08-25T09:04:11.107Z,101543.88
2022-08-25T09:06:45.509Z,101541.63
2022-08-25T09:09:12.366Z,101542.94
2022-08-25T09:11:47.493Z,101542.75
2022-08-25T09:14:18.709Z,101539.88
2022-08-25T09:16:56.890Z,101542.75
2022-08-25T09:19:26.173Z,101531.09
2022-08-25T09:21:52.765Z,101532.31
2022-08-25T09:24:36.003Z,101540.53
2022-08-25T09:27:24.240Z,101534.19
2022-08-25T09:30:05.573Z,101529.13
2022-08-25T09:32:34.098Z,101529.88
2022-08-25T09:35:01.990Z,101529.13
2022-08-25T09:37:28.417Z,101529.13
2022-08-25T09:39:54.847Z,101518.66
2022-08-25T09:42:27.541Z,101519.41
2022-08-25T09:44:54.486Z,101520.41
2022-08-25T09:47:24.254Z,101522.81
2022-08-25T09:50:00.964Z,101523.72
2022-08-25T09:52:37.279Z,101523.16
2022-08-25T09:55:20.379Z,101512.88
2022-08-25T09:57:47.759Z,101513.53
2022-08-25T10:00:14.356Z,101518.09
2022-08-25T10:02:41.534Z,101500.66
2022-08-25T10:05:25.819Z,101496.91
2022-08-25T10:07:54.265Z,101501.94
2022-08-25T10:10:25.882Z,101490.38
2022-08-25T10:12:52.329Z,101488.88
2022-08-25T10:15:29.749Z,101486.81
2022-08-25T10:17:59.853Z,101498.16
2022-08-25T10:20:26.679Z,101489.09
2022-08-25T10:23:13.070Z,101485.34
2022-08-25T10:25:57.694Z,101490.56
2022-08-25T10:28:29.476Z,101488.81
2022-08-25T10:31:14.922Z,101494.09
2022-08-25T10:33:41.273Z,101482.28
2022-08-25T10:36:10.657Z,101480.25
2022-08-25T10:38:37.007Z,101483.19
2022-08-25T10:41:22.403Z,101477.41
2022-08-25T10:43:59.223Z,101474.44
2022-08-25T10:46:30.217Z,101469.41
2022-08-25T10:49:04.518Z,101472.38
2022-08-25T10:51:32.806Z,101469.69
2022-08-25T10:54:20.387Z,101464.50
2022-08-25T10:56:50.250Z,101462.56
2022-08-25T10:59:31.556Z,101457.94
2022-08-25T11:02:03.290Z,101459.66
2022-08-25T11:04:36.505Z,101461.13
2022-08-25T11:07:23.217Z,101462.78
2022-08-25T11:09:51.050Z,101455.56
2022-08-25T11:22:07.309Z,101440.28
2022-08-25T11:27:53.750Z,101445.00
2022-08-25T11:30:21.465Z,101441.75
2022-08-25T11:32:51.161Z,101439.81
2022-08-25T11:35:23.062Z,101442.50
2022-08-25T11:37:56.955Z,101435.97
2022-08-25T11:40:29.657Z,101431.22
2022-08-25T11:42:57.533Z,101439.91
2022-08-25T11:45:42.546Z,101430.19
2022-08-25T11:48:12.079Z,101428.91
2022-08-25T11:50:57.793Z,101421.47
2022-08-25T11:53:29.036Z,101424.63
2022-08-25T11:56:04.184Z,101422.75
2022-08-25T11:58:40.957Z,101409.06
2022-08-25T12:01:25.844Z,101401.88
2022-08-25T12:03:52.918Z,101407.78
2022-08-25T12:06:26.611Z,101407.28
2022-08-25T12:08:54.170Z,101405.72
2022-08-25T12:11:42.999Z,101406.09
2022-08-25T12:14:16.726Z,101393.31
2022-08-25T12:16:44.040Z,101398.94
2022-08-25T12:19:30.442Z,101394.34
2022-08-25T12:22:19.053Z,101386.56
2022-08-25T12:24:48.773Z,101394.00
2022-08-25T12:27:33.610Z,101383.06
2022-08-25T12:30:29.628Z,101384.84
2022-08-25T12:33:08.474Z,101372.13
2022-08-25T12:35:40.238Z,101369.34
2022-08-25T12:38:09.394Z,101363.66
2022-08-25T12:40:52.551Z,101365.03
2022-08-25T12:43:37.230Z,101366.44
2022-08-25T12:46:29.600Z,101363.59
2022-08-25T12:48:57.055Z,101359.56
2022-08-25T12:51:25.210Z,101359.59
2022-08-25T12:53:53.302Z,101354.25
2022-08-25T12:56:19.572Z,101348.38
2022-08-25T12:59:01.075Z,101357.00
2022-08-25T13:01:36.003Z,101343.88
2022-08-25T13:04:26.422Z,101348.16
2022-08-25T13:07:04.891Z,101341.56
2022-08-25T13:09:53.659Z,101345.13
2022-08-25T13:12:39.030Z,101335.03
2022-08-25T13:15:05.535Z,101327.81
2022-08-25T13:17:33.658Z,101324.19
2022-08-25T13:20:17.117Z,101328.97
2022-08-25T13:22:47.427Z,101322.13
2022-08-25T13:25:16.096Z,101316.63
2022-08-25T13:27:49.022Z,101323.75
2022-08-25T13:30:19.907Z,101316.41
2022-08-25T13:32:46.264Z,101326.47
2022-08-25T13:35:17.806Z,101305.38
2022-08-25T13:37:46.364Z,101307.38
2022-08-25T13:40:16.384Z,101303.63
2022-08-25T13:42:50.910Z,101306.38
2022-08-25T13:45:22.097Z,101298.47
2022-08-25T13:47:50.374Z,101295.28
2022-08-25T13:50:28.888Z,101297.44
2022-08-25T13:52:56.446Z,101302.72
2022-08-25T13:55:27.793Z,101290.75
2022-08-25T13:57:55.214Z,101285.84
2022-08-25T14:00:43.166Z,101285.06
2022-08-25T14:03:16.857Z,101283.06
2022-08-25T14:05:46.800Z,101272.69
2022-08-25T14:08:28.991Z,101278.00
2022-08-25T14:11:07.886Z,101288.25
2022-08-25T14:13:44.523Z,101278.81
2022-08-25T14:16:12.568Z,101285.41
2022-08-25T14:18:39.422Z,101270.59
2022-08-25T14:21:10.074Z,101268.75
2022-08-25T14:23:36.572Z,101269.88
2022-08-25T14:26:02.940Z,101269.59
2022-08-25T14:28:33.421Z,101262.16
2022-08-25T14:31:00.268Z,101259.44
2022-08-25T14:33:30.259Z,101256.47
2022-08-25T14:35:58.026Z,101255.34
2022-08-25T14:38:24.527Z,101255.69
2022-08-25T14:40:50.986Z,101258.47
2022-08-25T14:43:17.425Z,101254.28
2022-08-25T14:45:44.178Z,101241.28
2022-08-25T14:48:17.975Z,101238.66
2022-08-25T14:50:44.352Z,101243.53
2022-08-25T14:53:11.228Z,101235.16
2022-08-25T14:55:38.711Z,101229.81
2022-08-25T14:58:06.830Z,101227.59
2022-08-25T15:00:34.146Z,101233.03
2022-08-25T15:03:01.442Z,101222.19
2022-08-25T15:05:29.007Z,101220.94
2022-08-25T15:08:15.201Z,101218.22
2022-08-25T15:10:41.602Z,101220.81
2022-08-25T15:13:09.678Z,101206.19
2022-08-25T15:15:39.866Z,101210.47
2022-08-25T15:18:19.436Z,101211.81
2022-08-25T15:20:46.743Z,101208.84
2022-08-25T15:23:16.352Z,101200.84
2022-08-25T15:25:42.731Z,101205.13
2022-08-25T15:28:10.124Z,101209.41
2022-08-25T15:30:36.641Z,101205.78
2022-08-25T15:33:03.006Z,101205.72
2022-08-25T15:35:30.999Z,101195.50
2022-08-25T15:37:57.621Z,101199.84
2022-08-25T15:40:24.017Z,101195.44
2022-08-25T15:42:51.087Z,101193.25
2022-08-25T15:45:17.454Z,101192.50
2022-08-25T15:47:44.187Z,101191.00
2022-08-25T15:50:11.968Z,101187.38
2022-08-25T15:52:46.458Z,101185.16
2022-08-25T15:55:13.977Z,101186.75
2022-08-25T15:57:40.338Z,101184.13
2022-08-25T16:00:11.132Z,101180.22
2022-08-25T16:02:39.421Z,101173.78
2022-08-25T16:05:06.793Z,101179.91
2022-08-25T16:07:33.176Z,101175.78
2022-08-25T16:09:59.546Z,101170.09
2022-08-25T16:12:25.911Z,101167.72
2022-08-25T16:14:54.358Z,101163.22
2022-08-25T16:17:22.089Z,101154.53
2022-08-25T16:19:48.535Z,101150.47
2022-08-25T16:22:14.933Z,101152.03
2022-08-25T16:24:42.522Z,101155.59
2022-08-25T16:27:11.472Z,101150.31
2022-08-25T16:29:38.539Z,101154.66
2022-08-25T16:32:05.232Z,101153.03
2022-08-25T16:34:31.784Z,101155.53
2022-08-25T16:37:00.803Z,101148.22
2022-08-25T16:39:27.205Z,101144.44
2022-08-25T16:41:53.578Z,101145.81
2022-08-25T16:44:22.655Z,101147.06
2022-08-25T16:46:49.343Z,101142.19
2022-08-25T16:49:17.436Z,101145.03
2022-08-25T16:51:43.803Z,101139.09
2022-08-25T16:54:29.083Z,101135.59
2022-08-25T16:56:55.659Z,101136.16
2022-08-25T16:59:22.127Z,101133.19
2022-08-25T17:01:50.100Z,101132.69
2022-08-25T17:04:17.270Z,101128.59
2022-08-25T17:06:49.609Z,101129.94
2022-08-25T17:09:23.055Z,101130.09
2022-08-25T17:11:50.486Z,101132.31
2022-08-25T17:14:18.020Z,101132.72
2022-08-25T17:16:44.403Z,101131.59
2022-08-25T17:19:12.640Z,101136.50
2022-08-25T17:21:40.545Z,101138.66
2022-08-25T17:24:11.662Z,101144.91
2022-08-25T17:26:38.749Z,101144.19
2022-08-25T17:29:05.111Z,101144.91
2022-08-25T17:31:34.978Z,101141.94
2022-08-25T17:34:01.486Z,101144.06
2022-08-25T17:36:27.867Z,101150.53
2022-08-25T17:38:54.547Z,101145.44
2022-08-25T17:41:21.034Z,101140.97
2022-08-25T17:43:47.665Z,101140.97
2022-08-25T17:46:15.167Z,101139.50
2022-08-25T17:48:43.740Z,101139.38
2022-08-25T17:51:10.327Z,101135.69
2022-08-25T17:53:36.687Z,101137.09
2022-08-25T17:56:04.717Z,101129.09
2022-08-25T17:58:31.175Z,101129.03
2022-08-25T18:00:57.683Z,101133.34
2022-08-25T18:03:25.451Z,101137.66
2022-08-25T18:05:51.826Z,101142.00
2022-08-25T18:08:18.800Z,101147.03
2022-08-25T18:10:46.040Z,101145.56
2022-08-25T18:13:12.432Z,101152.34
2022-08-25T18:15:39.159Z,101151.16
2022-08-25T18:18:09.612Z,101152.81
2022-08-25T18:20:38.873Z,101157.88
2022-08-25T18:23:09.458Z,101152.81
2022-08-25T18:25:36.217Z,101161.09
2022-08-25T18:28:02.681Z,101162.75
2022-08-25T18:30:29.070Z,101167.88
2022-08-25T18:32:55.413Z,101169.97
2022-08-25T18:35:22.276Z,101166.34
2022-08-25T18:38:11.556Z,101167.00
2022-08-25T18:40:39.113Z,101168.44
2022-08-25T18:43:06.766Z,101172.88
2022-08-25T18:45:37.964Z,101172.38
2022-08-25T18:48:13.739Z,101164.53
2022-08-25T18:50:40.994Z,101171.19
2022-08-25T18:53:07.422Z,101168.97
2022-08-25T18:55:33.875Z,101176.88
2022-08-25T18:58:00.472Z,101181.88
2022-08-25T19:00:27.638Z,101183.41
2022-08-25T19:02:54.850Z,101187.84
2022-08-25T19:05:23.601Z,101175.94
2022-08-25T19:07:52.903Z,101188.72
2022-08-25T19:10:19.765Z,101174.16
2022-08-25T19:12:46.122Z,101174.09
2022-08-25T19:15:12.725Z,101181.34
2022-08-25T19:17:39.069Z,101184.19
2022-08-25T19:20:11.387Z,101182.69
2022-08-25T19:22:41.838Z,101179.03
2022-08-25T19:25:09.353Z,101185.53
2022-08-25T19:27:35.704Z,101186.94
2022-08-25T19:30:02.325Z,101191.28
2022-08-25T19:32:28.742Z,101188.38
2022-08-25T19:34:55.443Z,101186.88
2022-08-25T19:37:23.749Z,101184.78
2022-08-25T19:39:53.846Z,101191.75
2022-08-25T19:42:37.019Z,101188.88
2022-08-25T19:45:07.025Z,101190.72
2022-08-25T19:47:33.396Z,101186.09
2022-08-25T19:49:59.843Z,101190.19
2022-08-25T19:52:26.593Z,101188.34
2022-08-25T19:54:53.358Z,101190.06
2022-08-25T19:57:27.756Z,101193.63
2022-08-25T19:59:55.059Z,101192.03
2022-08-25T20:02:22.383Z,101197.84
2022-08-25T20:04:50.256Z,101188.88
2022-08-25T20:07:17.429Z,101192.81
2022-08-25T20:09:45.271Z,101191.56
2022-08-25T20:12:11.941Z,101187.50
2022-08-25T20:14:38.375Z,101183.53
2022-08-25T20:17:04.720Z,101180.69
2022-08-25T20:19:49.807Z,101182.81
2022-08-25T20:22:17.414Z,101182.56
2022-08-25T20:24:55.922Z,101179.09
2022-08-25T20:27:25.383Z,101180.81
2022-08-25T20:29:51.743Z,101184.78
2022-08-25T20:32:19.339Z,101178.84
2022-08-25T20:34:46.038Z,101178.97
2022-08-25T20:37:12.645Z,101174.59
2022-08-25T20:39:39.134Z,101184.91
2022-08-25T20:42:05.515Z,101179.13
2022-08-25T20:44:33.824Z,101178.13
2022-08-25T20:47:01.463Z,101168.09
2022-08-25T20:49:28.345Z,101165.53
2022-08-25T20:51:54.715Z,101175.06
2022-08-25T20:54:21.454Z,101165.44
2022-08-25T20:56:49.296Z,101162.94
2022-08-25T20:59:16.886Z,101168.94
2022-08-25T21:01:43.300Z,101163.69
2022-08-25T21:04:11.245Z,101170.28
2022-08-25T21:06:40.864Z,101156.47
2022-08-25T21:09:12.467Z,101162.72
2022-08-25T21:11:42.169Z,101165.78
2022-08-25T21:14:09.732Z,101156.41
2022-08-25T21:16:37.608Z,101159.22
2022-08-25T21:19:03.997Z,101160.81
2022-08-25T21:21:35.278Z,101151.97
2022-08-25T21:24:01.899Z,101152.63
2022-08-25T21:26:29.569Z,101155.50
2022-08-25T21:28:59.839Z,101149.72
2022-08-25T21:31:26.330Z,101160.56
2022-08-25T21:33:53.119Z,101154.03
2022-08-25T21:36:20.322Z,101156.88
2022-08-25T21:38:47.597Z,101158.34
2022-08-25T21:41:15.464Z,101158.28
2022-08-25T21:43:41.809Z,101159.72
2022-08-25T21:46:11.398Z,101153.91
2022-08-25T21:48:41.483Z,101157.47
2022-08-25T21:51:09.146Z,101150.88
2022-08-25T21:53:35.614Z,101145.00
2022-08-25T21:56:02.770Z,101145.78
2022-08-25T21:58:29.647Z,101148.59
2022-08-25T22:00:56.064Z,101141.31
2022-08-25T22:03:22.420Z,101147.13
2022-08-25T22:05:49.639Z,101156.47
2022-08-25T22:08:16.627Z,101144.88
2022-08-25T22:10:44.446Z,101141.19
2022-08-25T22:13:10.867Z,101150.63
2022-08-25T22:15:37.809Z,101138.97
2022-08-25T22:18:04.159Z,101138.97
2022-08-25T22:20:30.933Z,101138.97
2022-08-25T22:22:57.313Z,101128.72
2022-08-25T22:25:26.406Z,101138.91
2022-08-25T22:27:56.660Z,101134.53
2022-08-25T22:30:23.935Z,101128.72
2022-08-25T22:32:51.023Z,101144.63
2022-08-25T22:35:17.410Z,101137.34
2022-08-25T22:37:46.945Z,101137.34
2022-08-25T22:40:13.886Z,101139.44
2022-08-25T22:42:42.287Z,101132.91
2022-08-25T22:45:11.250Z,101128.63
2022-08-25T22:47:37.609Z,101134.41
2022-08-25T22:50:04.787Z,101125.66
2022-08-25T22:52:33.659Z,101124.91
2022-08-25T22:55:00.322Z,101127.06
2022-08-25T22:57:26.925Z,101118.38
2022-08-25T22:59:56.471Z,101115.41
2022-08-25T23:02:22.910Z,101119.72
2022-08-25T23:04:49.327Z,101115.34
2022-08-25T23:07:16.021Z,101112.44
2022-08-25T23:09:42.388Z,101110.97
2022-08-25T23:12:10.967Z,101115.28
2022-08-25T23:14:38.312Z,101116.03
2022-08-25T23:17:08.725Z,101115.28
2022-08-25T23:19:35.151Z,101113.78
2022-08-25T23:22:10.976Z,101105.78
2022-08-25T23:24:38.054Z,101109.44
2022-08-25T23:27:09.355Z,101100.75
2022-08-25T23:29:36.353Z,101101.41
2022-08-25T23:32:02.869Z,101110.09
2022-08-25T23:34:29.278Z,101100.69
2022-08-25T23:36:55.875Z,101100.69
2022-08-25T23:39:22.494Z,101089.75
2022-08-25T23:41:49.237Z,101086.06
2022-08-25T23:44:17.175Z,101092.59
2022-08-25T23:46:44.422Z,101089.03
2022-08-25T23:49:10.893Z,101086.06
2022-08-25T23:51:38.009Z,101082.44
2022-08-25T23:54:05.934Z,101083.84
2022-08-25T23:56:35.308Z,101084.59
2022-08-25T23:59:02.992Z,101083.09
